KLSE

La Crosse Regional Airport

La Crosse, Wisconsin, USA

KLSE 271253Z 18005KT 10SM CLR 17/10 A3012 RMK AO2 SLP193 T01670100

Observed Flight Rules
Jun-27 @ 12:53 UTC (54 minutes ago)
 
Visual Flight Rules
Wind Visibility Clouds
180° at 5 knots 10 miles
  • Clear skies
Temperatures Readings
Current 17°C / 63°F
Dewpoint 10°C / 50°F
Humidity 64%
Altimeter 30.12" Hg
Pressure 1019.3 hPa
Elevation 199
Observed Flight Rules
Jun-27 @ 12:53 UTC
(54 minutes ago)
 
VFR
Wind Visibility
180° at 5 knots 10 miles
Clouds
  • Clear skies
Temperature Dewpoint
17°C / 63°F 10°C / 50°F
Humidity Altimeter Pressure
64% 30.12" Hg 1019.3 hPa